Time;durP1;ratioP1;P1;durP2;ratioP2;P2;SDS_P1;SDS_P2;PMS_P1;PMS_P2;Temp;Humidity;BMP_temperature;BMP_pressure;BME280_temperature;BME280_humidity;BME280_pressure;Samples;Min_cycle;Max_cycle;Signal;HPM_P1;HPM_P2
2023/01/07 00:01:17;;;;;;;;;;;7.80;99.90;;;;;;4936116;29;19955;-88
2023/01/07 00:03:43;;;;;;;;;;;7.80;99.90;;;;;;4935943;29;20264;-89
2023/01/07 00:06:16;;;;;;;;;;;7.80;99.90;;;;;;4935841;29;19945;-89
2023/01/07 00:08:42;;;;;;;;;;;7.90;99.90;;;;;;4935554;29;19974;-88
2023/01/07 00:11:14;;;;;;;;;;;8.00;99.90;;;;;;4935999;29;19957;-88
2023/01/07 00:13:39;;;;;;;;;;;8.60;99.90;;;;;;4936184;29;19934;-87
2023/01/07 00:16:06;;;;;;;;;;;8.30;99.90;;;;;;4935821;29;19926;-87
2023/01/07 00:18:32;;;;;;;;;;;8.10;99.90;;;;;;4936003;29;19991;-88
2023/01/07 00:20:58;;;;;;;;;;;8.10;99.90;;;;;;4935674;29;20074;-88
2023/01/07 00:23:24;;;;;;;;;;;8.50;99.90;;;;;;4936570;29;19989;-88
2023/01/07 00:25:50;;;;;;;;;;;8.10;99.90;;;;;;4936002;29;19930;-88
2023/01/07 00:28:16;;;;;;;;;;;8.20;99.90;;;;;;4919337;29;20005;-87
2023/01/07 00:30:42;;;;;;;;;;;8.20;99.90;;;;;;4936286;29;20017;-88
2023/01/07 00:33:10;;;;;;;;;;;8.30;99.90;;;;;;4935848;29;20017;-88
2023/01/07 00:35:35;;;;;;;;;;;8.30;99.90;;;;;;4920332;29;19927;-87
2023/01/07 00:38:02;;;;;;;;;;;8.30;99.90;;;;;;4936016;29;20025;-88
2023/01/07 00:40:29;;;;;;;;;;;8.40;99.90;;;;;;4919896;29;19927;-88
2023/01/07 00:43:00;;;;;;;;;;;8.40;99.90;;;;;;4935587;29;19933;-88
2023/01/07 00:45:26;;;;;;;;;;;8.40;99.90;;;;;;4920610;29;19934;-87
2023/01/07 00:47:52;;;;;;;;;;;8.40;99.90;;;;;;4935245;29;19981;-88
2023/01/07 00:50:21;;;;;;;;;;;8.50;99.90;;;;;;4919455;29;20359;-89
2023/01/07 00:52:49;;;;;;;;;;;8.50;99.90;;;;;;4935658;29;19926;-88
2023/01/07 00:55:15;;;;;;;;;;;8.50;99.90;;;;;;4935345;29;19927;-87
2023/01/07 00:57:41;;;;;;;;;;;8.60;99.90;;;;;;4919830;29;19934;-88
2023/01/07 01:00:08;;;;;;;;;;;8.70;99.90;;;;;;4935568;29;19950;-88
2023/01/07 01:02:33;;;;;;;;;;;8.70;99.90;;;;;;4936125;29;20364;-87
2023/01/07 01:04:59;;;;;;;;;;;8.90;99.90;;;;;;4939209;29;19933;-88
2023/01/07 01:07:25;;;;;;;;;;;8.70;99.90;;;;;;4938967;29;20261;-89
2023/01/07 01:09:50;;;;;;;;;;;8.70;99.90;;;;;;4938594;29;19977;-88
2023/01/07 01:12:16;;;;;;;;;;;8.70;99.90;;;;;;4938974;29;19933;-89
2023/01/07 01:14:41;;;;;;;;;;;8.80;99.90;;;;;;4939220;29;20283;-88
2023/01/07 01:17:10;;;;;;;;;;;9.00;99.90;;;;;;4938839;29;19927;-88
2023/01/07 01:19:35;;;;;;;;;;;8.80;99.90;;;;;;4938855;29;19977;-89
2023/01/07 01:22:01;;;;;;;;;;;8.80;99.90;;;;;;4937939;29;19926;-88
2023/01/07 01:24:26;;;;;;;;;;;8.80;99.90;;;;;;4922851;29;19927;-88
2023/01/07 01:26:52;;;;;;;;;;;10.40;99.90;;;;;;4939192;29;19951;-88
2023/01/07 01:29:17;;;;;;;;;;;8.90;99.90;;;;;;4938707;29;19930;-87
2023/01/07 01:31:43;;;;;;;;;;;8.90;99.90;;;;;;4922838;29;19970;-89
2023/01/07 01:34:09;;;;;;;;;;;8.90;99.90;;;;;;4922930;29;20032;-89
2023/01/07 01:36:34;;;;;;;;;;;8.90;99.90;;;;;;4938499;29;19927;-89
2023/01/07 01:39:00;;;;;;;;;;;9.00;99.90;;;;;;4939268;29;19941;-87
2023/01/07 01:41:25;;;;;;;;;;;9.00;99.90;;;;;;4939254;29;19927;-88
2023/01/07 01:43:51;;;;;;;;;;;9.00;99.90;;;;;;4922660;29;19978;-88
2023/01/07 01:46:17;;;;;;;;;;;9.00;99.90;;;;;;4906845;29;19927;-88
2023/01/07 01:48:46;;;;;;;;;;;9.00;99.90;;;;;;4938169;29;19927;-88
2023/01/07 01:51:13;;;;;;;;;;;9.10;99.90;;;;;;4938071;29;19923;-88
2023/01/07 01:53:38;;;;;;;;;;;9.10;99.90;;;;;;4922387;29;19970;-88
2023/01/07 01:56:09;;;;;;;;;;;9.10;99.90;;;;;;4938359;29;20020;-90
2023/01/07 01:58:36;;;;;;;;;;;9.10;99.90;;;;;;4938131;29;19982;-89
2023/01/07 02:01:02;;;;;;;;;;;9.30;99.90;;;;;;4938318;29;19926;-88
2023/01/07 02:03:29;;;;;;;;;;;9.20;99.90;;;;;;4938213;29;19956;-88
2023/01/07 02:05:54;;;;;;;;;;;9.20;99.90;;;;;;4938140;29;19974;-88
2023/01/07 02:08:23;;;;;;;;;;;9.20;99.90;;;;;;4922186;29;19927;-88
2023/01/07 02:11:15;;;;;;;;;;;9.20;99.90;;;;;;4937960;29;19953;-89
2023/01/07 02:13:59;;;;;;;;;;;9.30;99.90;;;;;;4920572;29;19930;-89
2023/01/07 02:16:31;;;;;;;;;;;9.30;99.90;;;;;;4937718;29;19926;-88
2023/01/07 02:19:14;;;;;;;;;;;9.30;99.90;;;;;;4938105;29;19974;-89
2023/01/07 02:21:45;;;;;;;;;;;9.30;99.90;;;;;;4937478;29;19994;-89
2023/01/07 02:24:16;;;;;;;;;;;9.30;99.90;;;;;;4938631;29;19926;-89
2023/01/07 02:27:09;;;;;;;;;;;9.30;99.90;;;;;;4937862;29;19926;-87
2023/01/07 02:29:53;;;;;;;;;;;9.30;99.90;;;;;;4930310;29;20017;-89
2023/01/07 02:32:24;;;;;;;;;;;9.40;99.90;;;;;;4938411;29;19926;-88
2023/01/07 02:34:53;;;;;;;;;;;9.30;99.90;;;;;;4937755;29;19926;-89
2023/01/07 02:37:23;;;;;;;;;;;9.30;99.90;;;;;;4937434;29;19938;-88
2023/01/07 02:39:56;;;;;;;;;;;9.40;99.90;;;;;;4938323;29;19993;-88
2023/01/07 02:42:27;;;;;;;;;;;9.40;99.90;;;;;;4937737;29;19981;-87
2023/01/07 02:45:12;;;;;;;;;;;9.40;99.90;;;;;;4937450;29;20025;-88
2023/01/07 02:47:40;;;;;;;;;;;9.40;99.90;;;;;;4936960;29;19954;-88
2023/01/07 02:50:06;;;;;;;;;;;9.50;99.90;;;;;;4937180;29;19933;-87
2023/01/07 02:52:33;;;;;;;;;;;9.40;99.90;;;;;;4937020;29;19949;-88
2023/01/07 02:55:00;;;;;;;;;;;9.50;99.90;;;;;;4937786;29;19993;-88
2023/01/07 02:57:26;;;;;;;;;;;9.50;99.90;;;;;;4937846;29;19982;-89
2023/01/07 03:00:05;;;;;;;;;;;9.50;99.90;;;;;;4936624;29;19927;-88
2023/01/07 03:02:37;;;;;;;;;;;9.50;99.90;;;;;;4937327;29;20335;-89
2023/01/07 03:05:21;;;;;;;;;;;9.50;99.90;;;;;;4937370;29;20242;-88
2023/01/07 03:07:47;;;;;;;;;;;9.50;99.90;;;;;;4936672;29;19927;-89
2023/01/07 03:10:25;;;;;;;;;;;9.50;99.90;;;;;;4936821;29;19933;-88
2023/01/07 03:12:50;;;;;;;;;;;9.50;99.90;;;;;;4936929;29;19978;-89
2023/01/07 03:15:18;;;;;;;;;;;9.50;99.90;;;;;;4936986;29;19930;-87
2023/01/07 03:17:59;;;;;;;;;;;9.60;99.90;;;;;;4936624;29;19934;-89
2023/01/07 03:20:26;;;;;;;;;;;9.60;99.90;;;;;;4936604;29;19934;-88
2023/01/07 03:22:52;;;;;;;;;;;9.60;99.90;;;;;;4936213;29;19933;-89
2023/01/07 03:25:20;;;;;;;;;;;9.50;99.90;;;;;;4920731;29;19931;-89
2023/01/07 03:27:47;;;;;;;;;;;9.50;99.90;;;;;;4936394;29;20299;-89
2023/01/07 03:30:14;;;;;;;;;;;9.80;99.90;;;;;;4936145;29;19927;-89
2023/01/07 03:32:46;;;;;;;;;;;9.50;99.90;;;;;;4936168;29;20394;-88
2023/01/07 03:35:12;;;;;;;;;;;9.50;99.90;;;;;;4936463;29;19934;-88
2023/01/07 03:37:39;;;;;;;;;;;9.60;99.90;;;;;;4920523;29;19934;-88
2023/01/07 03:40:08;;;;;;;;;;;9.60;99.90;;;;;;4936417;29;19966;-88
2023/01/07 03:42:40;;;;;;;;;;;9.60;99.90;;;;;;4936547;29;19933;-88
2023/01/07 03:45:13;;;;;;;;;;;9.60;99.90;;;;;;4936358;29;19927;-88
2023/01/07 03:47:42;;;;;;;;;;;9.60;99.90;;;;;;4935729;29;19931;-88
2023/01/07 03:50:08;;;;;;;;;;;9.60;99.90;;;;;;4936908;29;19981;-88
2023/01/07 03:52:33;;;;;;;;;;;9.60;99.90;;;;;;4920155;29;19982;-87
2023/01/07 03:54:59;;;;;;;;;;;9.60;99.90;;;;;;4936129;29;20256;-88
2023/01/07 03:57:25;;;;;;;;;;;9.60;99.90;;;;;;4936053;29;19927;-88
2023/01/07 03:59:50;;;;;;;;;;;9.60;99.90;;;;;;4936273;29;20240;-88
2023/01/07 04:02:16;;;;;;;;;;;9.60;99.90;;;;;;4920229;29;19927;-88
2023/01/07 04:04:41;;;;;;;;;;;9.60;99.90;;;;;;4919940;29;19927;-88
2023/01/07 04:07:07;;;;;;;;;;;9.60;99.90;;;;;;4936110;29;19931;-88
2023/01/07 04:09:33;;;;;;;;;;;9.60;99.90;;;;;;4920007;29;19934;-88
2023/01/07 04:11:58;;;;;;;;;;;9.50;99.90;;;;;;4936265;29;20030;-87
2023/01/07 04:14:24;;;;;;;;;;;9.60;99.90;;;;;;4936014;29;20282;-88
2023/01/07 04:16:50;;;;;;;;;;;9.60;99.90;;;;;;4935936;29;19934;-88
2023/01/07 04:19:16;;;;;;;;;;;9.60;99.90;;;;;;4920002;29;19965;-88
2023/01/07 04:21:42;;;;;;;;;;;9.60;99.90;;;;;;4935316;29;19930;-87
2023/01/07 04:24:07;;;;;;;;;;;9.60;99.90;;;;;;4920035;29;19939;-88
2023/01/07 04:26:33;;;;;;;;;;;9.70;99.90;;;;;;4935644;29;20363;-90
2023/01/07 04:28:58;;;;;;;;;;;9.70;99.90;;;;;;4920771;29;19974;-88
2023/01/07 04:31:24;;;;;;;;;;;9.70;99.90;;;;;;4920675;29;19926;-87
2023/01/07 04:33:49;;;;;;;;;;;9.70;99.90;;;;;;4920052;29;19979;-88
2023/01/07 04:36:15;;;;;;;;;;;9.60;99.90;;;;;;4935605;29;19931;-88
2023/01/07 04:38:41;;;;;;;;;;;9.60;99.90;;;;;;4938674;29;20311;-88
2023/01/07 04:41:06;;;;;;;;;;;9.60;99.90;;;;;;4939263;29;19927;-89
2023/01/07 04:43:32;;;;;;;;;;;9.60;99.90;;;;;;4923794;29;19966;-88
2023/01/07 04:45:57;;;;;;;;;;;9.60;99.90;;;;;;4924386;29;19931;-87
2023/01/07 04:48:23;;;;;;;;;;;9.60;99.90;;;;;;4924010;29;19977;-88
2023/01/07 04:50:48;;;;;;;;;;;9.70;99.90;;;;;;4924104;29;19927;-87
2023/01/07 04:53:14;;;;;;;;;;;9.60;99.90;;;;;;4939919;29;19982;-88
2023/01/07 04:55:40;;;;;;;;;;;9.60;99.90;;;;;;4923330;29;19992;-88
2023/01/07 04:58:05;;;;;;;;;;;9.60;99.90;;;;;;4939504;29;19926;-88
2023/01/07 05:00:31;;;;;;;;;;;9.60;99.90;;;;;;4955192;29;19927;-88
2023/01/07 05:02:56;;;;;;;;;;;9.70;99.90;;;;;;4923456;29;20283;-88
2023/01/07 05:05:22;;;;;;;;;;;9.60;99.90;;;;;;4939053;29;19945;-87
2023/01/07 05:07:48;;;;;;;;;;;9.60;99.90;;;;;;4939652;29;19938;-87
2023/01/07 05:10:13;;;;;;;;;;;9.60;99.90;;;;;;4923269;29;20360;-88
2023/01/07 05:12:39;;;;;;;;;;;9.60;99.90;;;;;;4938758;29;20002;-87
2023/01/07 05:15:05;;;;;;;;;;;9.50;99.90;;;;;;4923132;29;19927;-88
2023/01/07 05:17:31;;;;;;;;;;;9.50;99.90;;;;;;4923958;29;19927;-88
2023/01/07 05:19:56;;;;;;;;;;;9.50;99.90;;;;;;4923137;29;19933;-87
2023/01/07 05:22:22;;;;;;;;;;;9.50;99.90;;;;;;4938413;29;19931;-88
2023/01/07 05:24:47;;;;;;;;;;;9.50;99.90;;;;;;4907189;29;20264;-88
2023/01/07 05:27:13;;;;;;;;;;;9.50;99.90;;;;;;4923296;29;20439;-87
2023/01/07 05:29:38;;;;;;;;;;;9.50;99.90;;;;;;4923108;29;20283;-88
2023/01/07 05:32:04;;;;;;;;;;;9.50;99.90;;;;;;4938742;29;19997;-87
2023/01/07 05:34:30;;;;;;;;;;;9.40;99.90;;;;;;4939380;29;20056;-88
2023/01/07 05:36:55;;;;;;;;;;;9.50;99.90;;;;;;4954543;29;19927;-88
2023/01/07 05:39:21;;;;;;;;;;;9.40;99.90;;;;;;4922563;29;19965;-88
2023/01/07 05:41:46;;;;;;;;;;;9.40;99.90;;;;;;4938470;29;19926;-88
2023/01/07 05:44:12;;;;;;;;;;;9.50;99.90;;;;;;4939331;29;19991;-89
2023/01/07 05:46:37;;;;;;;;;;;9.50;99.90;;;;;;4938592;29;20025;-88
2023/01/07 05:49:03;;;;;;;;;;;8.20;99.90;;;;;;4921226;29;19934;-88
2023/01/07 05:51:29;;;;;;;;;;;9.50;99.90;;;;;;4938059;29;19933;-88
2023/01/07 05:53:54;;;;;;;;;;;9.50;99.90;;;;;;4939073;29;19977;-89
2023/01/07 05:56:20;;;;;;;;;;;9.50;99.90;;;;;;4937892;29;20375;-88
2023/01/07 05:58:51;;;;;;;;;;;9.50;99.90;;;;;;4953868;29;19927;-87
2023/01/07 06:01:17;;;;;;;;;;;9.50;99.90;;;;;;4938067;29;19927;-88
2023/01/07 06:03:43;;;;;;;;;;;9.50;99.90;;;;;;4922228;29;19927;-88
2023/01/07 06:06:08;;;;;;;;;;;9.50;99.90;;;;;;4937932;29;20299;-88
2023/01/07 06:08:38;;;;;;;;;;;9.50;99.90;;;;;;4921871;29;19930;-88
2023/01/07 06:11:04;;;;;;;;;;;9.50;99.90;;;;;;4938031;29;19935;-89
2023/01/07 06:13:30;;;;;;;;;;;9.50;99.90;;;;;;4937794;29;20367;-88
2023/01/07 06:16:00;;;;;;;;;;;9.50;99.90;;;;;;4938094;29;19970;-88
2023/01/07 06:18:25;;;;;;;;;;;9.50;99.90;;;;;;4937487;29;19927;-88
2023/01/07 06:20:51;;;;;;;;;;;9.50;99.90;;;;;;4938570;29;19978;-88
2023/01/07 06:23:16;;;;;;;;;;;9.50;99.90;;;;;;4925760;29;19927;-89
2023/01/07 06:25:42;;;;;;;;;;;9.50;99.90;;;;;;4940876;29;20048;-88
2023/01/07 06:28:08;;;;;;;;;;;9.50;99.90;;;;;;4925007;29;19957;-88
2023/01/07 06:30:33;;;;;;;;;;;9.40;99.90;;;;;;4940781;29;19933;-88
2023/01/07 06:32:59;;;;;;;;;;;9.40;99.90;;;;;;4941107;29;19973;-88
2023/01/07 06:35:24;;;;;;;;;;;9.40;99.90;;;;;;4940509;29;20286;-88
2023/01/07 06:37:50;;;;;;;;;;;9.40;99.90;;;;;;4925811;29;19930;-88
2023/01/07 06:40:16;;;;;;;;;;;9.40;99.90;;;;;;4941357;29;20331;-87
2023/01/07 06:42:41;;;;;;;;;;;9.30;99.90;;;;;;4940918;29;19926;-87
2023/01/07 06:45:07;;;;;;;;;;;9.40;99.90;;;;;;4924903;29;19934;-88
2023/01/07 06:47:33;;;;;;;;;;;9.30;99.90;;;;;;4940311;29;20426;-88
2023/01/07 06:49:58;;;;;;;;;;;9.30;99.90;;;;;;4940661;29;20005;-88
2023/01/07 06:52:24;;;;;;;;;;;9.30;99.90;;;;;;4924536;29;19927;-88
2023/01/07 06:54:49;;;;;;;;;;;9.30;99.90;;;;;;4940296;29;19926;-88
2023/01/07 06:57:15;;;;;;;;;;;9.30;99.90;;;;;;4940281;29;19992;-88
2023/01/07 06:59:41;;;;;;;;;;;9.30;99.90;;;;;;4940331;29;19926;-89
2023/01/07 07:02:06;;;;;;;;;;;9.30;99.90;;;;;;4924294;29;19926;-88
2023/01/07 07:04:32;;;;;;;;;;;9.30;99.90;;;;;;4940343;29;19926;-87
2023/01/07 07:06:57;;;;;;;;;;;9.30;99.90;;;;;;4924460;29;19938;-88
2023/01/07 07:09:23;;;;;;;;;;;9.30;99.90;;;;;;4940476;29;19927;-88
2023/01/07 07:11:48;;;;;;;;;;;9.40;99.90;;;;;;4940289;29;19930;-89
2023/01/07 07:14:14;;;;;;;;;;;9.30;99.90;;;;;;4924248;29;19926;-88
2023/01/07 07:16:40;;;;;;;;;;;9.30;99.90;;;;;;4939933;29;19981;-89
2023/01/07 07:19:05;;;;;;;;;;;9.30;99.90;;;;;;4939822;29;19934;-88
2023/01/07 07:21:31;;;;;;;;;;;9.30;99.90;;;;;;4936072;29;20363;-88
2023/01/07 07:23:56;;;;;;;;;;;9.30;99.90;;;;;;4936581;29;19934;-89
2023/01/07 07:26:22;;;;;;;;;;;9.30;99.90;;;;;;4936862;29;19938;-88
2023/01/07 07:28:47;;;;;;;;;;;9.30;99.90;;;;;;4920298;29;19938;-88
2023/01/07 07:31:13;;;;;;;;;;;9.30;99.90;;;;;;4920741;29;19974;-88
2023/01/07 07:33:39;;;;;;;;;;;9.30;99.90;;;;;;4936452;29;19942;-87
2023/01/07 07:36:05;;;;;;;;;;;9.40;99.90;;;;;;4936625;29;19927;-88
2023/01/07 07:38:30;;;;;;;;;;;9.40;99.90;;;;;;4920941;29;19927;-88
2023/01/07 07:40:56;;;;;;;;;;;9.30;99.90;;;;;;4920860;29;20275;-89
2023/01/07 07:43:21;;;;;;;;;;;9.40;99.90;;;;;;4937264;29;19927;-88
2023/01/07 07:45:47;;;;;;;;;;;9.40;99.90;;;;;;4936552;29;20382;-88
2023/01/07 07:48:13;;;;;;;;;;;9.40;99.90;;;;;;4920916;29;19927;-88
2023/01/07 07:50:38;;;;;;;;;;;9.40;99.90;;;;;;4920484;29;19931;-88
2023/01/07 07:53:08;;;;;;;;;;;9.30;99.90;;;;;;4936372;29;19926;-88
2023/01/07 07:55:38;;;;;;;;;;;9.40;99.90;;;;;;4920869;29;19927;-88
2023/01/07 07:58:04;;;;;;;;;;;9.90;99.90;;;;;;4936965;29;20018;-87
2023/01/07 08:00:29;;;;;;;;;;;9.70;99.90;;;;;;4936949;29;20403;-87
2023/01/07 08:02:58;;;;;;;;;;;9.30;99.90;;;;;;4936695;29;19927;-87
2023/01/07 08:05:24;;;;;;;;;;;9.30;99.90;;;;;;4935965;29;19926;-87
2023/01/07 08:07:50;;;;;;;;;;;9.30;99.90;;;;;;4935974;29;19934;-88
2023/01/07 08:10:15;;;;;;;;;;;9.30;99.90;;;;;;4936205;29;19926;-89
2023/01/07 08:12:41;;;;;;;;;;;9.30;99.90;;;;;;4919622;29;19933;-88
2023/01/07 08:15:07;;;;;;;;;;;9.30;99.90;;;;;;4920085;29;19982;-89
2023/01/07 08:17:32;;;;;;;;;;;9.30;99.90;;;;;;4935877;29;19927;-88
2023/01/07 08:19:58;;;;;;;;;;;9.30;99.90;;;;;;4920058;29;19937;-88
2023/01/07 08:22:23;;;;;;;;;;;9.30;99.90;;;;;;4903851;29;19927;-88
2023/01/07 08:24:49;;;;;;;;;;;9.20;99.90;;;;;;4936111;29;19986;-89
2023/01/07 08:27:15;;;;;;;;;;;9.20;99.90;;;;;;4920346;29;19927;-89
2023/01/07 08:29:40;;;;;;;;;;;9.20;99.90;;;;;;4935700;29;20013;-89
2023/01/07 08:32:06;;;;;;;;;;;9.20;99.90;;;;;;4935417;29;20290;-89
2023/01/07 08:34:31;;;;;;;;;;;9.10;99.90;;;;;;4920087;29;19934;-88
2023/01/07 08:36:57;;;;;;;;;;;9.20;99.90;;;;;;4936537;29;19937;-88
2023/01/07 08:39:22;;;;;;;;;;;9.10;99.90;;;;;;4935498;29;19926;-87
2023/01/07 08:41:48;;;;;;;;;;;9.10;99.90;;;;;;4920729;29;19926;-87
2023/01/07 08:44:14;;;;;;;;;;;9.10;99.90;;;;;;4935682;29;19943;-87
2023/01/07 08:46:40;;;;;;;;;;;9.10;99.90;;;;;;4919843;29;20283;-86
2023/01/07 08:49:06;;;;;;;;;;;9.10;99.90;;;;;;4920091;29;19933;-87
2023/01/07 08:51:31;;;;;;;;;;;9.10;99.90;;;;;;4935488;29;20361;-87
2023/01/07 08:53:57;;;;;;;;;;;9.10;99.90;;;;;;4936280;29;19931;-87
2023/01/07 08:56:22;;;;;;;;;;;9.10;99.90;;;;;;4935738;29;19930;-87
2023/01/07 08:58:48;;;;;;;;;;;9.10;99.90;;;;;;4919832;29;19934;-87
2023/01/07 09:01:14;;;;;;;;;;;9.10;99.90;;;;;;4935468;29;19933;-86
2023/01/07 09:03:39;;;;;;;;;;;9.10;99.90;;;;;;4935562;29;19927;-87
2023/01/07 09:06:05;;;;;;;;;;;9.10;99.90;;;;;;4935118;29;20006;-87
2023/01/07 09:08:30;;;;;;;;;;;9.20;99.90;;;;;;4936157;29;20056;-87
2023/01/07 09:10:56;;;;;;;;;;;9.10;99.90;;;;;;4936250;29;20233;-87
2023/01/07 09:13:22;;;;;;;;;;;9.20;99.90;;;;;;4936285;29;19938;-86
2023/01/07 09:15:47;;;;;;;;;;;9.20;99.90;;;;;;4919835;29;19930;-88
2023/01/07 09:18:13;;;;;;;;;;;9.20;99.90;;;;;;4919515;29;20260;-89
2023/01/07 09:20:38;;;;;;;;;;;9.20;99.90;;;;;;4919427;29;19981;-87
2023/01/07 09:23:04;;;;;;;;;;;9.20;99.90;;;;;;4934772;29;19927;-87
2023/01/07 09:25:29;;;;;;;;;;;9.20;99.90;;;;;;4923320;29;19934;-87
2023/01/07 09:27:55;;;;;;;;;;;9.20;99.90;;;;;;4938574;29;19976;-87
2023/01/07 09:30:21;;;;;;;;;;;9.20;99.90;;;;;;4922928;29;19927;-88
2023/01/07 09:32:46;;;;;;;;;;;9.20;99.90;;;;;;4938668;29;19927;-87
2023/01/07 09:35:12;;;;;;;;;;;9.20;99.90;;;;;;4939507;29;19931;-87
2023/01/07 09:37:38;;;;;;;;;;;9.20;99.90;;;;;;4923777;29;20033;-87
2023/01/07 09:40:04;;;;;;;;;;;9.20;99.90;;;;;;4939485;29;19927;-87
2023/01/07 09:42:35;;;;;;;;;;;9.20;99.90;;;;;;4938654;29;19927;-87
2023/01/07 09:45:13;;;;;;;;;;;9.20;99.90;;;;;;4939364;29;19927;-87
2023/01/07 09:47:42;;;;;;;;;;;9.20;99.90;;;;;;4938662;29;19926;-87
2023/01/07 09:50:17;;;;;;;;;;;9.20;99.90;;;;;;4938208;29;19927;-87
2023/01/07 09:52:46;;;;;;;;;;;9.20;99.90;;;;;;4939135;29;19943;-87
2023/01/07 09:55:16;;;;;;;;;;;9.20;99.90;;;;;;4938776;29;20069;-86
2023/01/07 09:57:42;;;;;;;;;;;9.20;99.90;;;;;;4938973;29;19927;-86
2023/01/07 10:00:15;;;;;;;;;;;9.20;99.90;;;;;;4938271;29;19930;-87
2023/01/07 10:02:44;;;;;;;;;;;9.20;99.90;;;;;;4938460;29;19934;-88
2023/01/07 10:05:12;;;;;;;;;;;9.30;99.90;;;;;;4938685;29;19969;-86
2023/01/07 10:07:40;;;;;;;;;;;9.30;99.90;;;;;;4938010;29;19938;-87
2023/01/07 10:10:15;;;;;;;;;;;9.30;99.90;;;;;;4938118;29;19927;-87
2023/01/07 10:13:11;;;;;;;;;;;9.30;99.90;;;;;;4938145;29;19926;-87
2023/01/07 10:16:02;;;;;;;;;;;9.30;99.90;;;;;;4938307;29;19926;-86
2023/01/07 10:18:57;;;;;;;;;;;9.30;99.90;;;;;;4938874;29;20241;-89
2023/01/07 10:21:39;;;;;;;;;;;9.40;99.90;;;;;;4934450;29;19938;-87
2023/01/07 10:24:10;;;;;;;;;;;9.40;99.90;;;;;;4941826;29;19926;-89
2023/01/07 10:26:45;;;;;;;;;;;9.30;99.90;;;;;;4941159;29;20414;-88
2023/01/07 10:29:31;;;;;;;;;;;9.40;99.90;;;;;;4941177;29;19962;-89
2023/01/07 10:31:58;;;;;;;;;;;9.40;99.90;;;;;;4924596;29;19927;-90
2023/01/07 10:34:28;;;;;;;;;;;9.30;99.90;;;;;;4940742;29;20312;-89
2023/01/07 10:36:56;;;;;;;;;;;9.50;99.90;;;;;;4940234;29;19933;-88
2023/01/07 10:39:45;;;;;;;;;;;9.40;99.90;;;;;;4940833;29;20315;-89
2023/01/07 10:42:15;;;;;;;;;;;10.90;99.90;;;;;;4940182;29;20045;-87
2023/01/07 10:44:41;;;;;;;;;;;9.60;99.90;;;;;;4941361;29;20271;-89
2023/01/07 10:47:06;;;;;;;;;;;9.70;99.90;;;;;;4940549;29;19927;-88
2023/01/07 10:49:40;;;;;;;;;;;9.70;99.90;;;;;;4940181;29;19927;-89
2023/01/07 10:52:29;;;;;;;;;;;9.80;99.90;;;;;;4941196;29;19933;-88
2023/01/07 10:54:58;;;;;;;;;;;9.80;99.90;;;;;;4921638;29;19927;-89
2023/01/07 10:57:24;;;;;;;;;;;9.90;99.90;;;;;;4940293;29;19926;-88
2023/01/07 10:59:51;;;;;;;;;;;9.90;99.90;;;;;;4940421;29;19926;-88
2023/01/07 11:02:19;;;;;;;;;;;10.00;99.90;;;;;;4940990;29;20033;-88
2023/01/07 11:04:45;;;;;;;;;;;10.00;99.90;;;;;;4940057;29;19974;-86
2023/01/07 11:07:23;;;;;;;;;;;10.10;99.90;;;;;;4924361;29;19977;-89
2023/01/07 11:09:49;;;;;;;;;;;10.10;99.90;;;;;;4924001;29;19930;-88
2023/01/07 11:12:15;;;;;;;;;;;10.10;99.90;;;;;;4940205;29;19957;-87
2023/01/07 11:14:41;;;;;;;;;;;10.10;99.90;;;;;;4940089;29;19930;-89
2023/01/07 11:17:06;;;;;;;;;;;10.10;99.90;;;;;;4925022;29;19933;-88
2023/01/07 11:19:41;;;;;;;;;;;10.20;99.90;;;;;;4940353;29;20351;-89
2023/01/07 11:22:26;;;;;;;;;;;10.20;99.90;;;;;;4936239;29;19927;-90
2023/01/07 11:24:56;;;;;;;;;;;10.20;99.90;;;;;;4937518;29;19927;-89
2023/01/07 11:27:30;;;;;;;;;;;10.30;99.90;;;;;;4936404;29;19930;-88
2023/01/07 11:30:04;;;;;;;;;;;10.30;99.90;;;;;;4936560;29;19927;-89
2023/01/07 11:32:31;;;;;;;;;;;10.40;99.90;;;;;;4937208;29;19927;-88
2023/01/07 11:35:00;;;;;;;;;;;10.50;99.90;;;;;;4936575;29;20290;-88
2023/01/07 11:37:39;;;;;;;;;;;10.60;99.90;;;;;;4936720;29;19927;-89
2023/01/07 11:40:27;;;;;;;;;;;10.60;99.90;;;;;;4936792;29;20035;-88
2023/01/07 11:42:55;;;;;;;;;;;9.70;99.90;;;;;;4937172;29;19933;-89
2023/01/07 11:45:27;;;;;;;;;;;10.70;99.90;;;;;;4936381;29;19927;-91
2023/01/07 11:47:58;;;;;;;;;;;10.70;99.90;;;;;;4936327;29;19978;-88
2023/01/07 11:50:25;;;;;;;;;;;10.70;99.90;;;;;;4936898;29;19934;-88
2023/01/07 11:53:14;;;;;;;;;;;10.70;99.90;;;;;;4936245;29;20343;-94
2023/01/07 11:55:56;;;;;;;;;;;10.70;99.90;;;;;;4935506;29;19982;-90
2023/01/07 11:58:23;;;;;;;;;;;10.60;99.90;;;;;;4936539;29;19931;-90
2023/01/07 12:01:07;;;;;;;;;;;10.70;99.90;;;;;;4936751;29;20446;-91
2023/01/07 12:03:40;;;;;;;;;;;10.70;99.90;;;;;;4935949;29;19934;-91
2023/01/07 12:06:07;;;;;;;;;;;10.70;99.90;;;;;;4936353;29;20315;-91
2023/01/07 12:08:33;;;;;;;;;;;10.70;99.90;;;;;;4936241;29;19927;-92
2023/01/07 12:11:04;;;;;;;;;;;10.70;99.90;;;;;;4921087;29;20307;-89
2023/01/07 12:13:31;;;;;;;;;;;10.70;99.90;;;;;;4936044;29;19927;-90
2023/01/07 12:16:07;;;;;;;;;;;10.70;99.90;;;;;;4935988;29;19927;-91
2023/01/07 12:19:03;;;;;;;;;;;10.80;99.90;;;;;;4906662;29;19927;-93
2023/01/07 12:21:29;;;;;;;;;;;11.90;99.90;;;;;;4937720;29;19930;-91
2023/01/07 12:24:02;;;;;;;;;;;10.60;99.90;;;;;;4943661;29;19933;-92
2023/01/07 12:26:45;;;;;;;;;;;10.70;99.90;;;;;;4945443;29;19930;-90
2023/01/07 12:29:25;;;;;;;;;;;10.60;99.90;;;;;;4943573;29;19977;-89
2023/01/07 12:32:03;;;;;;;;;;;10.60;99.90;;;;;;4942149;29;19977;-90
2023/01/07 12:34:48;;;;;;;;;;;10.70;99.90;;;;;;4938757;29;19977;-88
2023/01/07 12:37:32;;;;;;;;;;;9.30;99.90;;;;;;4938999;29;19933;-88
2023/01/07 12:40:19;;;;;;;;;;;10.80;99.90;;;;;;4939466;29;19931;-88
2023/01/07 12:42:49;;;;;;;;;;;10.80;99.90;;;;;;4938939;29;19981;-88
2023/01/07 12:45:21;;;;;;;;;;;10.80;99.90;;;;;;4938850;29;19926;-92
2023/01/07 12:47:50;;;;;;;;;;;10.80;99.90;;;;;;4938720;29;19965;-90
2023/01/07 12:50:24;;;;;;;;;;;10.80;99.90;;;;;;4939569;29;19927;-91
2023/01/07 12:53:21;;;;;;;;;;;10.80;99.90;;;;;;4938961;29;19933;-93
2023/01/07 12:55:49;;;;;;;;;;;11.00;99.90;;;;;;4910561;29;19985;-89
2023/01/07 12:58:27;;;;;;;;;;;10.80;99.90;;;;;;4939232;29;19926;-91
2023/01/07 13:00:52;;;;;;;;;;;10.80;99.90;;;;;;4927733;29;19927;-89
2023/01/07 13:03:25;;;;;;;;;;;10.80;99.90;;;;;;4942534;29;19934;-89
2023/01/07 13:05:53;;;;;;;;;;;10.80;99.90;;;;;;4942906;29;20371;-88
2023/01/07 13:08:18;;;;;;;;;;;10.80;99.90;;;;;;4941887;29;19973;-89
2023/01/07 13:10:50;;;;;;;;;;;10.80;99.90;;;;;;4958872;28;19930;-88
2023/01/07 13:13:21;;;;;;;;;;;10.80;99.90;;;;;;4943025;29;20259;-87
2023/01/07 13:15:46;;;;;;;;;;;10.70;99.90;;;;;;4942878;29;20368;-86
2023/01/07 13:18:14;;;;;;;;;;;10.70;99.90;;;;;;4942800;29;19973;-87
2023/01/07 13:20:39;;;;;;;;;;;10.70;99.90;;;;;;4941722;29;19926;-87
2023/01/07 13:23:10;;;;;;;;;;;10.60;99.90;;;;;;4942366;29;19926;-87
2023/01/07 13:25:42;;;;;;;;;;;10.60;99.90;;;;;;4941675;29;19926;-88
2023/01/07 13:28:23;;;;;;;;;;;10.60;99.90;;;;;;4941456;29;19973;-87
2023/01/07 13:31:00;;;;;;;;;;;10.60;99.90;;;;;;4941831;29;19930;-89
2023/01/07 13:33:43;;;;;;;;;;;10.60;99.90;;;;;;4942158;29;19926;-89
2023/01/07 13:36:23;;;;;;;;;;;10.50;99.90;;;;;;4957401;29;20437;-88
2023/01/07 13:38:59;;;;;;;;;;;9.30;99.90;;;;;;4941974;29;19989;-89
2023/01/07 13:41:44;;;;;;;;;;;10.40;99.90;;;;;;4957479;29;19933;-91
2023/01/07 13:44:09;;;;;;;;;;;10.40;99.90;;;;;;4941687;29;20018;-89
2023/01/07 13:46:39;;;;;;;;;;;9.70;99.90;;;;;;4941646;29;19966;-89
2023/01/07 13:49:19;;;;;;;;;;;10.40;99.90;;;;;;4941211;29;19973;-88
2023/01/07 13:51:45;;;;;;;;;;;10.40;99.90;;;;;;4941446;29;19927;-92
2023/01/07 13:54:11;;;;;;;;;;;10.40;99.90;;;;;;4941439;29;19927;-90
2023/01/07 13:56:37;;;;;;;;;;;10.40;99.90;;;;;;4957115;29;19961;-89
2023/01/07 13:59:03;;;;;;;;;;;10.30;99.90;;;;;;4942208;29;20017;-91
2023/01/07 14:01:31;;;;;;;;;;;10.30;99.90;;;;;;4942244;29;19927;-91
2023/01/07 14:04:17;;;;;;;;;;;10.30;99.90;;;;;;4941295;29;19977;-90
2023/01/07 14:06:47;;;;;;;;;;;10.30;99.90;;;;;;4940603;29;19934;-89
2023/01/07 14:09:16;;;;;;;;;;;10.30;99.90;;;;;;4940907;28;19934;-89
2023/01/07 14:12:00;;;;;;;;;;;10.20;99.90;;;;;;4940225;29;19981;-89
2023/01/07 14:14:45;;;;;;;;;;;10.30;99.90;;;;;;4941375;29;19927;-89
2023/01/07 14:17:21;;;;;;;;;;;10.20;99.90;;;;;;4941164;29;20351;-91
2023/01/07 14:20:02;;;;;;;;;;;10.10;99.90;;;;;;4941176;29;20267;-90
2023/01/07 14:22:37;;;;;;;;;;;10.10;99.90;;;;;;4940594;29;19969;-90
2023/01/07 14:25:06;;;;;;;;;;;10.10;99.90;;;;;;4941132;29;20386;-89
2023/01/07 14:27:50;;;;;;;;;;;10.00;99.90;;;;;;4942991;29;19931;-88
2023/01/07 14:30:19;;;;;;;;;;;10.00;99.90;;;;;;4941025;29;20021;-88
2023/01/07 14:32:45;;;;;;;;;;;10.00;99.90;;;;;;4941613;29;20384;-89
2023/01/07 14:35:11;;;;;;;;;;;10.00;99.90;;;;;;4940573;29;20282;-90
2023/01/07 14:37:38;;;;;;;;;;;10.40;99.90;;;;;;4940873;29;19934;-88